Time;durP1;ratioP1;P1;durP2;ratioP2;P2;SDS_P1;SDS_P2;PMS_P1;PMS_P2;Temp;Humidity;BMP_temperature;BMP_pressure;BME280_temperature;BME280_humidity;BME280_pressure;Samples;Min_cycle;Max_cycle;Signal;HPM_P1;HPM_P2
2021/12/31 00:00:50;;;;;;;15.20;10.10;;;21.30;69.40;;;;;;4980685;28;88117;-83
2021/12/31 00:03:17;;;;;;;17.15;10.05;;;21.30;69.30;;;;;;4984130;28;86661;-83
2021/12/31 00:05:47;;;;;;;13.85;9.23;;;21.30;69.50;;;;;;4982546;28;88667;-82
2021/12/31 00:08:25;;;;;;;14.43;9.43;;;21.20;69.50;;;;;;4982570;28;86612;-84
2021/12/31 00:10:59;;;;;;;15.50;9.07;;;21.20;69.40;;;;;;4983944;28;89544;-82
2021/12/31 00:13:31;;;;;;;15.40;9.55;;;21.20;69.30;;;;;;4966166;28;86633;-82
2021/12/31 00:16:23;;;;;;;16.20;9.52;;;21.20;69.40;;;;;;4985725;28;86647;-82
2021/12/31 00:18:48;;;;;;;15.23;9.55;;;21.30;69.40;;;;;;4981904;28;87951;-82
2021/12/31 00:21:17;;;;;;;13.73;9.10;;;21.20;69.10;;;;;;4982087;28;87682;-82
2021/12/31 00:23:50;;;;;;;12.43;8.30;;;21.20;69.10;;;;;;4983617;28;86187;-83
2021/12/31 00:26:19;;;;;;;13.98;8.98;;;21.20;69.10;;;;;;4982883;28;87305;-82
2021/12/31 00:28:48;;;;;;;18.90;9.60;;;21.20;68.90;;;;;;4982592;28;86579;-82
2021/12/31 00:31:15;;;;;;;13.73;8.82;;;21.20;69.10;;;;;;4979850;28;88433;-81
2021/12/31 00:33:42;;;;;;;14.30;8.98;;;21.20;69.10;;;;;;4981213;28;88891;-82
2021/12/31 00:36:08;;;;;;;15.95;9.40;;;21.20;69.00;;;;;;4980534;28;87680;-84
2021/12/31 00:38:35;;;;;;;12.00;8.55;;;21.20;69.00;;;;;;4981638;28;88387;-83
2021/12/31 00:41:05;;;;;;;12.55;8.50;;;21.20;69.10;;;;;;4981740;28;88103;-82
2021/12/31 00:43:41;;;;;;;14.63;9.55;;;21.20;69.10;;;;;;4982148;28;88195;-83
2021/12/31 00:46:07;;;;;;;11.02;8.07;;;21.20;69.00;;;;;;4981957;28;86915;-83
2021/12/31 00:48:33;;;;;;;12.65;8.40;;;21.20;69.10;;;;;;4983361;28;87630;-84
2021/12/31 00:51:03;;;;;;;;;;;21.20;69.00;;;;;;4980469;28;87296;-82
2021/12/31 00:54:11;;;;;;;11.10;7.75;;;21.20;69.10;;;;;;4979847;28;88100;-83
2021/12/31 00:56:48;;;;;;;13.95;8.30;;;21.10;68.80;;;;;;4982193;28;88826;-82
2021/12/31 00:59:15;;;;;;;14.18;8.48;;;21.10;69.00;;;;;;4996363;28;88850;-82
2021/12/31 01:01:41;;;;;;;12.48;8.40;;;21.10;69.00;;;;;;4983349;28;88066;-82
2021/12/31 01:04:25;;;;;;;12.18;8.98;;;21.10;69.00;;;;;;4981310;28;88865;-82
2021/12/31 01:07:03;;;;;;;13.23;8.27;;;21.10;68.80;;;;;;4985361;28;87271;-82
2021/12/31 01:09:49;;;;;;;13.05;8.52;;;21.10;68.60;;;;;;4978165;28;87434;-82
2021/12/31 01:12:18;;;;;;;12.68;8.13;;;21.10;68.70;;;;;;4979422;28;88364;-82
2021/12/31 01:14:56;;;;;;;12.13;8.60;;;21.10;69.00;;;;;;4982292;28;88678;-81
2021/12/31 01:18:15;;;;;;;13.77;8.38;;;21.10;68.50;;;;;;4984222;28;87317;-82
2021/12/31 01:20:34;;;;;;;12.95;8.02;;;21.10;68.60;;;;;;4976748;28;88281;-82
2021/12/31 01:23:08;;;;;;;12.57;8.35;;;21.10;68.60;;;;;;4979090;28;90951;-82
2021/12/31 01:25:34;;;;;;;11.70;7.70;;;21.10;68.50;;;;;;4963064;28;91327;-81
2021/12/31 01:28:00;;;;;;;12.82;7.78;;;21.10;68.50;;;;;;4963589;28;87083;-84
2021/12/31 01:30:40;;;;;;;12.75;7.85;;;21.10;68.50;;;;;;4963630;28;87737;-82
2021/12/31 01:33:14;;;;;;;11.10;7.35;;;21.10;68.60;;;;;;4980182;28;88198;-82
2021/12/31 01:35:40;;;;;;;11.65;7.45;;;21.10;68.50;;;;;;4979169;28;89120;-82
2021/12/31 01:38:13;;;;;;;8.88;7.05;;;21.10;68.70;;;;;;4977444;28;87640;-82
2021/12/31 01:40:43;;;;;;;10.13;7.45;;;21.10;68.50;;;;;;4976208;28;86882;-83
2021/12/31 01:43:12;;;;;;;9.80;6.97;;;21.00;68.50;;;;;;4977181;28;88849;-82
2021/12/31 01:46:11;;;;;;;9.48;7.18;;;21.10;68.50;;;;;;4978193;28;87588;-85
2021/12/31 01:51:17;;;;;;;10.85;7.43;;;21.10;68.40;;;;;;4978093;28;87911;-82
2021/12/31 01:53:46;;;;;;;10.50;7.03;;;21.00;68.40;;;;;;4976204;28;87851;-83
2021/12/31 01:56:16;;;;;;;11.55;7.60;;;21.10;68.30;;;;;;4980882;28;87656;-82
2021/12/31 01:58:50;;;;;;;10.07;7.10;;;21.10;68.30;;;;;;4978985;28;87036;-82
2021/12/31 02:01:20;;;;;;;9.85;6.70;;;21.00;68.20;;;;;;4980640;28;87213;-82
2021/12/31 02:03:47;;;;;;;11.77;8.00;;;21.00;68.30;;;;;;4977275;28;88611;-82
2021/12/31 02:06:19;;;;;;;10.77;7.05;;;21.10;68.40;;;;;;4977981;28;86899;-82
2021/12/31 02:08:44;;;;;;;10.60;7.20;;;21.00;68.20;;;;;;4978075;28;87434;-82
2021/12/31 02:11:17;;;;;;;11.43;7.95;;;21.00;68.30;;;;;;4977488;28;87741;-82
2021/12/31 02:13:43;;;;;;;10.57;7.35;;;21.00;68.30;;;;;;4971167;28;88702;-82
2021/12/31 02:16:09;;;;;;;11.23;6.90;;;21.00;68.30;;;;;;4975201;28;88025;-84
2021/12/31 02:18:36;;;;;;;10.10;6.88;;;21.00;68.30;;;;;;4976764;28;86854;-82
2021/12/31 02:21:08;;;;;;;11.40;7.40;;;21.00;68.30;;;;;;4976763;28;87774;-81
2021/12/31 02:23:55;;;;;;;11.05;7.53;;;21.00;68.30;;;;;;4980384;28;87546;-82
2021/12/31 02:26:26;;;;;;;8.95;6.82;;;21.00;68.20;;;;;;4971891;28;88264;-82
2021/12/31 02:28:54;;;;;;;9.65;6.82;;;21.00;68.20;;;;;;4977189;28;87975;-82
2021/12/31 02:31:20;;;;;;;9.67;6.43;;;21.00;68.10;;;;;;4978559;28;86991;-82
2021/12/31 02:33:50;;;;;;;10.50;7.22;;;21.00;68.20;;;;;;4976697;28;88183;-83
2021/12/31 02:36:19;;;;;;;10.75;6.60;;;21.00;68.30;;;;;;4976524;28;87905;-82
2021/12/31 02:38:45;;;;;;;;;;;21.00;68.20;;;;;;4974722;28;88493;-81
2021/12/31 02:41:12;;;;;;;11.20;7.13;;;21.00;68.00;;;;;;4973251;28;87775;-82
2021/12/31 02:43:55;;;;;;;9.55;6.43;;;21.00;67.90;;;;;;4974470;28;88207;-82
2021/12/31 02:46:25;;;;;;;9.05;6.32;;;21.00;68.00;;;;;;4976930;28;88081;-81
2021/12/31 02:48:56;;;;;;;11.88;6.97;;;21.00;67.90;;;;;;4973498;28;87488;-82
2021/12/31 02:51:43;;;;;;;7.97;6.05;;;21.00;67.60;;;;;;4974075;28;87861;-82
2021/12/31 02:54:16;;;;;;;9.68;6.63;;;21.00;67.80;;;;;;4976539;28;88525;-83
2021/12/31 02:56:42;;;;;;;9.52;6.53;;;21.00;67.90;;;;;;4974197;28;90662;-82
2021/12/31 02:59:11;;;;;;;9.93;6.63;;;21.00;68.00;;;;;;4975569;28;87651;-82
2021/12/31 03:01:45;;;;;;;7.93;6.32;;;21.00;68.00;;;;;;4976117;28;87311;-80
2021/12/31 03:04:16;;;;;;;8.25;6.18;;;20.90;68.80;;;;;;4969235;28;89987;-82
2021/12/31 03:06:46;;;;;;;7.32;5.57;;;20.90;67.70;;;;;;4971874;28;88399;-81
2021/12/31 03:09:19;;;;;;;8.85;6.40;;;20.90;67.70;;;;;;4972757;28;87912;-82
2021/12/31 03:11:47;;;;;;;8.48;6.45;;;20.90;67.80;;;;;;4974204;28;87848;-82
2021/12/31 03:14:18;;;;;;;8.02;5.45;;;20.90;67.80;;;;;;4972161;28;88149;-82
2021/12/31 03:16:46;;;;;;;8.73;5.90;;;20.90;67.80;;;;;;4970026;28;87821;-82
2021/12/31 03:19:13;;;;;;;9.05;6.97;;;20.90;67.80;;;;;;4971608;28;87393;-81
2021/12/31 03:21:52;;;;;;;8.35;5.78;;;20.90;67.90;;;;;;4972349;28;87115;-81
2021/12/31 03:24:18;;;;;;;9.77;6.63;;;20.90;67.80;;;;;;4968350;28;90193;-82
2021/12/31 03:26:44;;;;;;;9.00;5.97;;;20.90;67.80;;;;;;4963600;28;86995;-82
2021/12/31 03:29:10;;;;;;;10.18;6.55;;;20.90;67.80;;;;;;4966137;28;88747;-82
2021/12/31 03:31:36;;;;;;;8.63;6.00;;;20.90;67.70;;;;;;4962066;28;87545;-82
2021/12/31 03:34:03;;;;;;;8.35;6.22;;;20.90;67.70;;;;;;4960044;28;89516;-82
2021/12/31 03:36:30;;;;;;;9.27;6.50;;;20.90;67.70;;;;;;4960271;28;89656;-82
2021/12/31 03:38:57;;;;;;;8.18;6.07;;;20.90;67.70;;;;;;4964860;28;86874;-82
2021/12/31 03:41:23;;;;;;;9.60;6.40;;;20.90;67.70;;;;;;4964127;28;87349;-83
2021/12/31 03:43:48;;;;;;;8.60;6.22;;;20.90;67.70;;;;;;4959883;28;87743;-81
2021/12/31 03:46:16;;;;;;;7.72;6.00;;;20.90;67.60;;;;;;4964069;28;87879;-82
2021/12/31 03:48:43;;;;;;;9.40;6.05;;;20.90;67.50;;;;;;4968725;28;88162;-81
2021/12/31 03:51:09;;;;;;;9.45;6.18;;;20.90;67.60;;;;;;4969468;28;87542;-81
2021/12/31 03:53:35;;;;;;;7.70;5.90;;;20.90;67.60;;;;;;4964780;28;89353;-81
2021/12/31 03:56:00;;;;;;;8.13;5.72;;;20.90;68.40;;;;;;4967000;28;89880;-82
2021/12/31 03:58:26;;;;;;;7.50;6.05;;;20.90;67.70;;;;;;4958812;28;87843;-82
2021/12/31 04:00:51;;;;;;;8.20;5.63;;;20.90;67.70;;;;;;4964026;28;87025;-81
2021/12/31 04:03:18;;;;;;;7.25;4.82;;;20.90;67.50;;;;;;4963312;28;87803;-82
2021/12/31 04:05:44;;;;;;;8.88;5.78;;;20.90;67.40;;;;;;4965461;28;87913;-81
2021/12/31 04:08:10;;;;;;;7.50;5.63;;;20.80;67.30;;;;;;4954349;28;87270;-81
2021/12/31 04:10:36;;;;;;;9.35;5.35;;;20.80;67.40;;;;;;4959228;28;86651;-81
2021/12/31 04:13:03;;;;;;;7.53;5.60;;;20.80;67.50;;;;;;4966808;28;91019;-81
2021/12/31 04:15:31;;;;;;;7.43;5.75;;;20.80;67.30;;;;;;4966370;28;87396;-81
2021/12/31 04:17:57;;;;;;;7.15;5.32;;;20.90;67.50;;;;;;4962757;28;88482;-81
2021/12/31 04:20:41;;;;;;;8.63;5.22;;;20.80;67.30;;;;;;4962026;28;88807;-81
2021/12/31 04:23:28;;;;;;;6.68;5.03;;;20.80;67.20;;;;;;4959959;28;88247;-81
2021/12/31 04:25:55;;;;;;;7.07;5.20;;;20.80;67.20;;;;;;4961884;28;87304;-82
2021/12/31 04:28:20;;;;;;;9.02;5.50;;;20.80;67.40;;;;;;4966614;28;88114;-82
2021/12/31 04:30:50;;;;;;;7.13;5.13;;;20.80;67.30;;;;;;4966685;28;88453;-81
2021/12/31 04:33:16;;;;;;;6.43;5.13;;;20.80;67.30;;;;;;4969295;28;88137;-81
2021/12/31 04:35:43;;;;;;;7.65;5.07;;;20.80;67.30;;;;;;4966902;28;87324;-81
2021/12/31 04:38:13;;;;;;;7.35;5.10;;;20.80;67.30;;;;;;4960028;28;87791;-82
2021/12/31 04:40:41;;;;;;;6.28;5.07;;;20.70;67.30;;;;;;4964591;28;87746;-82
2021/12/31 04:43:07;;;;;;;7.15;5.35;;;20.80;67.50;;;;;;4962580;28;90108;-82
2021/12/31 04:45:37;;;;;;;9.32;5.88;;;20.80;67.40;;;;;;4956924;28;87038;-81
2021/12/31 04:48:03;;;;;;;7.22;5.20;;;20.80;67.30;;;;;;4967997;28;87328;-81
2021/12/31 04:50:29;;;;;;;6.35;4.95;;;20.80;67.30;;;;;;4958165;28;87393;-81
2021/12/31 04:52:55;;;;;;;8.20;5.43;;;20.80;67.30;;;;;;4963023;28;88048;-82
2021/12/31 04:55:21;;;;;;;7.50;5.40;;;20.80;67.30;;;;;;4963888;28;87779;-82
2021/12/31 04:57:48;;;;;;;6.82;4.78;;;20.80;67.30;;;;;;4960176;28;87462;-81
2021/12/31 05:00:15;;;;;;;6.32;5.05;;;20.80;67.30;;;;;;4963143;28;90707;-81
2021/12/31 05:02:41;;;;;;;6.47;4.95;;;20.80;67.30;;;;;;4954074;28;90482;-81
2021/12/31 05:05:07;;;;;;;5.53;4.57;;;20.80;67.20;;;;;;4960238;28;88122;-82
2021/12/31 05:07:32;;;;;;;7.13;5.25;;;20.70;67.20;;;;;;4963909;28;88057;-81
2021/12/31 05:09:58;;;;;;;6.45;4.72;;;20.70;67.20;;;;;;4966013;28;87517;-82
2021/12/31 05:12:28;;;;;;;7.07;4.85;;;20.70;67.20;;;;;;4961322;28;88036;-82
2021/12/31 05:14:54;;;;;;;7.05;5.18;;;20.70;67.40;;;;;;4967412;28;87478;-82
2021/12/31 05:17:20;;;;;;;7.22;4.85;;;20.70;67.30;;;;;;4965549;28;87881;-82
2021/12/31 05:19:57;;;;;;;7.03;4.95;;;20.70;67.30;;;;;;4961177;28;87595;-81
2021/12/31 05:22:22;;;;;;;7.05;5.00;;;20.70;67.20;;;;;;4964323;28;87731;-81
2021/12/31 05:24:49;;;;;;;6.85;4.75;;;20.70;66.90;;;;;;4967517;28;88897;-82
2021/12/31 05:27:15;;;;;;;6.32;4.60;;;20.70;66.90;;;;;;4968012;28;87664;-82
2021/12/31 05:29:41;;;;;;;6.97;4.32;;;20.70;67.10;;;;;;4962054;28;87118;-81
2021/12/31 05:32:09;;;;;;;6.78;5.00;;;20.70;67.10;;;;;;4963359;28;88497;-81
2021/12/31 05:34:35;;;;;;;6.65;4.40;;;20.70;67.00;;;;;;4960003;28;88685;-81
2021/12/31 05:37:01;;;;;;;6.68;4.40;;;20.70;67.20;;;;;;4960447;28;86958;-82
2021/12/31 05:39:26;;;;;;;6.63;4.95;;;20.70;67.00;;;;;;4957491;28;89020;-81
2021/12/31 05:41:53;;;;;;;6.63;4.40;;;20.70;67.10;;;;;;4963311;28;88345;-82
2021/12/31 05:44:18;;;;;;;6.25;4.65;;;20.70;67.10;;;;;;4957467;28;90098;-82
2021/12/31 05:46:48;;;;;;;7.05;4.55;;;20.70;66.80;;;;;;4959608;28;88124;-82
2021/12/31 05:49:14;;;;;;;6.88;4.88;;;20.60;67.00;;;;;;4966062;28;86859;-81
2021/12/31 05:51:41;;;;;;;6.28;4.50;;;20.70;67.00;;;;;;4960931;28;87834;-81
2021/12/31 05:54:08;;;;;;;7.15;4.65;;;20.70;67.00;;;;;;4967490;28;87782;-81
2021/12/31 05:56:33;;;;;;;6.40;4.70;;;20.60;66.90;;;;;;4959667;28;88218;-81
2021/12/31 05:58:59;;;;;;;5.60;4.15;;;20.60;66.90;;;;;;4963432;28;87426;-81
2021/12/31 06:01:28;;;;;;;6.13;4.13;;;20.60;67.00;;;;;;4962130;28;90008;-82
2021/12/31 06:03:54;;;;;;;5.95;4.28;;;20.60;67.30;;;;;;4959527;28;87765;-81
2021/12/31 06:06:20;;;;;;;5.20;3.83;;;20.60;66.70;;;;;;4963257;28;87593;-81
2021/12/31 06:08:45;;;;;;;5.18;3.97;;;20.60;66.90;;;;;;4966517;28;87845;-81
2021/12/31 06:11:14;;;;;;;5.40;3.72;;;20.60;67.00;;;;;;4963081;28;87679;-82
2021/12/31 06:13:43;;;;;;;5.63;4.22;;;20.60;66.90;;;;;;4968886;28;88241;-81
2021/12/31 06:16:11;;;;;;;4.70;3.75;;;20.60;66.90;;;;;;4964302;28;87472;-82
2021/12/31 06:18:39;;;;;;;5.57;4.25;;;20.60;66.90;;;;;;4961936;28;88022;-81
2021/12/31 06:21:07;;;;;;;5.25;3.92;;;20.60;67.00;;;;;;4965149;28;90173;-81
2021/12/31 06:23:33;;;;;;;4.60;3.70;;;20.60;67.00;;;;;;4963483;28;88929;-81
2021/12/31 06:26:00;;;;;;;5.45;4.07;;;20.60;67.00;;;;;;4965248;28;87007;-82
2021/12/31 06:28:27;;;;;;;6.63;4.50;;;20.60;66.80;;;;;;4965400;28;89852;-82
2021/12/31 06:30:53;;;;;;;4.65;4.10;;;20.60;66.90;;;;;;4964939;28;88218;-81
2021/12/31 06:33:24;;;;;;;6.25;4.40;;;20.60;66.70;;;;;;4963911;28;89491;-82
2021/12/31 06:35:49;;;;;;;4.78;3.63;;;20.60;66.80;;;;;;4963469;28;87686;-82
2021/12/31 06:38:15;;;;;;;5.82;3.83;;;20.60;66.70;;;;;;4968059;28;89037;-82
2021/12/31 06:40:41;;;;;;;5.55;4.07;;;20.60;66.90;;;;;;4968045;28;88673;-82
2021/12/31 06:43:10;;;;;;;6.75;4.60;;;20.60;66.80;;;;;;4967328;28;90374;-82
2021/12/31 06:45:36;;;;;;;4.90;3.72;;;20.50;66.80;;;;;;4968163;28;88686;-81
2021/12/31 06:48:04;;;;;;;6.35;4.22;;;20.60;66.70;;;;;;4967508;28;89462;-82
2021/12/31 06:50:30;;;;;;;4.78;3.50;;;20.50;66.50;;;;;;4977752;28;89386;-81
2021/12/31 06:52:56;;;;;;;4.82;3.75;;;20.60;66.60;;;;;;4988759;28;88384;-81
2021/12/31 06:55:23;;;;;;;5.53;4.20;;;20.60;66.60;;;;;;4988517;28;87224;-81
2021/12/31 06:57:49;;;;;;;4.85;3.85;;;20.60;66.60;;;;;;4990083;28;86134;-81
2021/12/31 07:00:15;;;;;;;4.65;3.60;;;20.50;66.40;;;;;;4988692;28;87895;-81
2021/12/31 07:02:41;;;;;;;5.18;3.63;;;20.50;66.50;;;;;;4988710;28;87253;-82
2021/12/31 07:05:09;;;;;;;5.60;3.78;;;20.50;66.60;;;;;;4986017;28;87548;-81
2021/12/31 07:07:34;;;;;;;5.88;3.78;;;20.50;66.50;;;;;;4986483;28;87030;-81
2021/12/31 07:10:00;;;;;;;5.22;3.55;;;20.50;66.40;;;;;;4984880;28;89386;-82
2021/12/31 07:12:25;;;;;;;4.88;3.80;;;20.50;66.30;;;;;;4986004;28;87257;-82
2021/12/31 07:14:52;;;;;;;4.78;3.55;;;20.50;66.30;;;;;;4986238;28;86511;-81
2021/12/31 07:17:17;;;;;;;5.90;3.90;;;20.50;66.30;;;;;;4988124;28;86887;-82
2021/12/31 07:19:43;;;;;;;7.22;4.10;;;20.50;66.20;;;;;;4985472;28;91140;-82
2021/12/31 07:22:13;;;;;;;4.43;3.50;;;20.50;66.20;;;;;;4984829;28;87058;-81
2021/12/31 07:24:38;;;;;;;6.18;3.40;;;20.60;66.10;;;;;;4968594;28;87568;-82
2021/12/31 07:27:09;;;;;;;5.75;4.25;;;20.60;66.20;;;;;;4985343;28;88454;-82
2021/12/31 07:29:34;;;;;;;8.23;4.22;;;20.60;66.50;;;;;;4987778;28;87570;-81
2021/12/31 07:32:00;;;;;;;8.27;3.60;;;20.60;66.40;;;;;;4985912;28;86886;-81
2021/12/31 07:34:26;;;;;;;5.65;3.60;;;20.70;66.70;;;;;;4968506;28;87656;-82
2021/12/31 07:36:52;;;;;;;6.22;3.70;;;20.70;66.60;;;;;;4985693;28;86468;-81
2021/12/31 07:39:31;;;;;;;8.45;4.13;;;20.80;66.90;;;;;;4984745;28;88040;-82
2021/12/31 07:41:59;;;;;;;5.57;3.80;;;20.80;66.80;;;;;;4983917;28;86737;-82
2021/12/31 07:44:24;;;;;;;9.68;3.10;;;20.80;66.30;;;;;;4984312;28;87733;-83
2021/12/31 07:46:50;;;;;;;9.20;3.33;;;20.80;63.70;;;;;;4983998;28;89534;-85
2021/12/31 07:49:17;;;;;;;7.10;3.33;;;20.80;63.50;;;;;;4971456;28;89040;-84
2021/12/31 07:51:43;;;;;;;6.82;3.25;;;20.80;65.10;;;;;;4986541;28;88026;-83
2021/12/31 07:54:11;;;;;;;5.30;3.35;;;20.90;65.30;;;;;;4986876;28;87025;-82
2021/12/31 07:56:38;;;;;;;4.60;3.33;;;20.80;65.50;;;;;;4984652;28;88207;-82
2021/12/31 07:59:04;;;;;;;4.93;3.10;;;20.90;65.60;;;;;;4984424;28;92075;-81
2021/12/31 08:01:31;;;;;;;4.78;3.47;;;20.90;65.90;;;;;;4986688;28;87536;-83
2021/12/31 08:04:00;;;;;;;5.07;2.95;;;20.90;65.20;;;;;;4975350;28;87337;-82
2021/12/31 08:06:25;;;;;;;8.50;3.40;;;20.90;65.90;;;;;;4962260;28;89000;-83
2021/12/31 08:08:54;;;;;;;8.23;3.70;;;20.90;65.80;;;;;;4985255;28;86793;-83
2021/12/31 08:11:20;;;;;;;6.70;3.22;;;20.90;65.80;;;;;;4985352;28;87500;-83
2021/12/31 08:13:46;;;;;;;5.05;2.92;;;20.90;66.00;;;;;;4986277;28;87821;-83
2021/12/31 08:16:22;;;;;;;7.90;3.72;;;20.90;66.00;;;;;;4984886;28;86565;-83
2021/12/31 08:18:48;;;;;;;4.88;3.38;;;20.90;66.00;;;;;;4986149;28;87706;-82
2021/12/31 08:21:17;;;;;;;5.80;3.50;;;20.90;66.10;;;;;;4986117;28;88870;-83
2021/12/31 08:23:45;;;;;;;4.78;3.00;;;20.90;66.30;;;;;;4981328;28;88077;-83
2021/12/31 08:26:11;;;;;;;6.30;3.53;;;20.90;66.30;;;;;;4983450;28;87228;-83
2021/12/31 08:28:37;;;;;;;5.85;3.28;;;20.90;66.10;;;;;;4981723;28;87592;-83
2021/12/31 08:31:02;;;;;;;7.45;3.20;;;20.90;66.20;;;;;;4981502;28;87487;-84
2021/12/31 08:33:28;;;;;;;5.25;3.38;;;20.90;66.40;;;;;;4964563;28;87023;-82
2021/12/31 08:35:55;;;;;;;6.53;3.20;;;20.90;66.40;;;;;;4981659;28;86705;-83
2021/12/31 08:38:23;;;;;;;45.25;6.78;;;20.90;66.60;;;;;;4981430;28;87733;-83
2021/12/31 08:40:51;;;;;;;163.73;27.60;;;20.90;66.30;;;;;;4980518;28;87214;-81
2021/12/31 08:43:18;;;;;;;49.10;10.88;;;20.90;65.60;;;;;;4978666;28;87038;-82
2021/12/31 08:45:45;;;;;;;43.45;9.57;;;20.90;66.30;;;;;;4982200;28;87132;-81
2021/12/31 08:48:11;;;;;;;36.55;8.73;;;20.80;66.50;;;;;;4977686;28;88848;-81
2021/12/31 08:50:36;;;;;;;34.70;9.73;;;20.90;66.50;;;;;;4972207;28;88423;-82
2021/12/31 08:53:04;;;;;;;44.00;9.70;;;20.90;66.30;;;;;;4978744;28;86830;-81
2021/12/31 08:55:29;;;;;;;49.20;11.65;;;20.90;66.30;;;;;;4983406;28;87037;-82
2021/12/31 08:57:56;;;;;;;55.60;12.43;;;20.90;65.40;;;;;;4976297;28;87021;-82
2021/12/31 09:00:21;;;;;;;56.20;12.38;;;20.90;64.60;;;;;;4977832;28;87743;-82
2021/12/31 09:02:50;;;;;;;53.08;11.48;;;20.90;64.30;;;;;;4975683;28;86838;-82
2021/12/31 09:05:16;;;;;;;33.85;9.55;;;20.90;64.20;;;;;;4951967;28;86309;-83
2021/12/31 09:07:46;;;;;;;41.92;9.73;;;20.90;65.10;;;;;;4990635;28;89588;-81
2021/12/31 09:10:14;;;;;;;42.17;10.35;;;20.90;65.20;;;;;;4977084;28;89810;-81
2021/12/31 09:12:44;;;;;;;33.20;9.40;;;20.90;64.70;;;;;;4977629;28;88933;-83
2021/12/31 09:15:26;;;;;;;41.60;9.93;;;20.90;65.00;;;;;;4980146;28;86787;-82
2021/12/31 09:17:55;;;;;;;39.80;9.77;;;20.90;65.20;;;;;;4979441;28;87641;-80
2021/12/31 09:20:31;;;;;;;33.90;9.02;;;20.90;65.30;;;;;;4982534;28;89084;-81
2021/12/31 09:23:17;;;;;;;31.63;9.05;;;20.90;65.50;;;;;;4973771;28;87309;-81
2021/12/31 09:25:43;;;;;;;28.98;8.85;;;20.90;65.60;;;;;;4968824;28;87880;-81
2021/12/31 09:28:08;;;;;;;36.13;9.75;;;20.90;65.80;;;;;;4965882;28;88172;-81
2021/12/31 09:30:34;;;;;;;31.77;9.27;;;21.00;66.40;;;;;;4967046;28;87831;-80
2021/12/31 09:33:04;;;;;;;34.42;9.77;;;20.90;67.40;;;;;;4965899;28;87232;-82
2021/12/31 09:35:31;;;;;;;33.38;10.00;;;21.00;67.70;;;;;;4969651;28;87543;-80
2021/12/31 09:38:09;;;;;;;27.60;8.75;;;21.00;67.70;;;;;;4967097;28;89093;-81
2021/12/31 09:40:39;;;;;;;26.73;8.57;;;21.00;66.00;;;;;;4964556;28;90826;-82
2021/12/31 09:43:12;;;;;;;24.10;8.50;;;21.00;66.00;;;;;;4975819;28;87028;-82
2021/12/31 09:45:42;;;;;;;30.50;8.55;;;21.00;66.10;;;;;;4974192;28;88117;-83
2021/12/31 09:48:14;;;;;;;24.30;7.78;;;21.00;65.80;;;;;;4972735;28;90655;-81
2021/12/31 09:50:45;;;;;;;23.88;8.43;;;21.00;65.90;;;;;;4972485;28;88920;-81
2021/12/31 09:53:12;;;;;;;26.63;8.90;;;21.10;65.70;;;;;;4978069;28;87260;-81
2021/12/31 09:55:42;;;;;;;22.77;7.22;;;21.00;65.50;;;;;;4977958;28;87330;-82
2021/12/31 09:58:10;;;;;;;24.33;8.18;;;21.10;65.90;;;;;;4973878;28;88399;-81
2021/12/31 10:00:46;;;;;;;21.83;7.70;;;21.10;66.10;;;;;;4955704;28;89932;-81
2021/12/31 10:03:37;;;;;;;23.98;8.40;;;21.10;66.10;;;;;;4973835;28;87849;-82
2021/12/31 10:06:14;;;;;;;23.80;7.97;;;21.10;66.00;;;;;;4979738;28;87654;-82
2021/12/31 10:08:46;;;;;;;24.98;8.05;;;21.10;66.00;;;;;;4973494;28;89322;-82
2021/12/31 10:11:30;;;;;;;26.15;7.75;;;21.10;66.20;;;;;;4974429;28;89893;-81
2021/12/31 10:14:25;;;;;;;19.13;7.35;;;21.10;66.40;;;;;;4968680;28;87549;-82
2021/12/31 10:17:13;;;;;;;26.85;8.75;;;21.10;66.50;;;;;;4990050;28;87713;-81
2021/12/31 10:19:57;;;;;;;22.88;7.93;;;21.10;67.20;;;;;;4972677;28;87609;-81
2021/12/31 10:22:27;;;;;;;20.52;7.32;;;21.10;66.50;;;;;;4972649;28;87928;-80
2021/12/31 10:24:54;;;;;;;21.25;7.25;;;21.10;66.50;;;;;;4972847;28;87776;-81
2021/12/31 10:27:25;;;;;;;21.42;7.60;;;21.10;66.60;;;;;;4973663;28;87432;-81
2021/12/31 10:30:09;;;;;;;22.23;7.22;;;21.10;66.70;;;;;;4968565;28;90575;-81
2021/12/31 10:32:40;;;;;;;21.90;6.55;;;21.10;66.70;;;;;;4999095;23;90437;-86
2021/12/31 10:35:18;;;;;;;19.30;7.15;;;21.10;66.10;;;;;;4970623;28;87228;-84
2021/12/31 10:38:02;;;;;;;19.63;6.78;;;21.10;66.40;;;;;;4969351;28;87301;-84
2021/12/31 10:40:36;;;;;;;21.67;7.20;;;21.10;67.20;;;;;;4969551;28;88195;-86
2021/12/31 10:43:15;;;;;;;20.60;7.95;;;21.10;66.60;;;;;;4970717;28;88751;-86
2021/12/31 10:46:01;;;;;;;18.58;7.63;;;21.10;66.60;;;;;;4969447;28;87777;-88
2021/12/31 10:48:44;;;;;;;17.40;6.65;;;21.10;66.80;;;;;;4969126;28;86658;-83
2021/12/31 10:51:13;;;;;;;18.98;6.63;;;21.10;66.70;;;;;;4967802;28;88140;-85
2021/12/31 10:53:40;;;;;;;17.02;7.22;;;21.10;66.90;;;;;;4968054;28;87428;-85
2021/12/31 10:56:09;;;;;;;24.17;6.88;;;21.10;67.00;;;;;;4968050;28;88841;-85
2021/12/31 10:58:39;;;;;;;20.52;6.63;;;21.10;67.20;;;;;;4969715;28;87050;-85
2021/12/31 11:01:07;;;;;;;16.88;6.68;;;21.10;67.50;;;;;;4968988;28;88298;-83
2021/12/31 11:03:38;;;;;;;14.35;6.20;;;21.10;68.10;;;;;;4970235;28;87737;-82
2021/12/31 11:06:06;;;;;;;19.08;6.65;;;21.10;67.30;;;;;;4968528;28;87013;-83
2021/12/31 11:08:32;;;;;;;18.05;6.40;;;21.10;68.00;;;;;;4969098;28;87644;-83
2021/12/31 11:11:00;;;;;;;16.85;6.40;;;21.10;67.10;;;;;;4972518;28;90354;-84
2021/12/31 11:13:30;;;;;;;17.05;6.80;;;21.10;66.90;;;;;;4971517;28;87268;-84
2021/12/31 11:15:58;;;;;;;18.65;6.32;;;21.10;67.00;;;;;;4970375;28;87257;-83
2021/12/31 11:18:24;;;;;;;13.18;5.85;;;21.10;67.10;;;;;;4969364;28;88966;-85
2021/12/31 11:20:52;;;;;;;13.90;5.72;;;21.10;66.90;;;;;;4970587;28;89578;-84
2021/12/31 11:23:27;;;;;;;16.52;6.07;;;21.10;66.70;;;;;;4972646;28;89666;-86
2021/12/31 11:26:05;;;;;;;15.13;6.00;;;21.10;66.90;;;;;;4973131;28;87233;-83
2021/12/31 11:28:36;;;;;;;15.68;6.05;;;21.20;67.10;;;;;;4973641;28;87728;-83
2021/12/31 11:31:21;;;;;;;14.75;5.55;;;21.20;67.10;;;;;;4973066;28;87748;-84
2021/12/31 11:33:56;;;;;;;16.77;6.13;;;21.20;66.90;;;;;;4971241;28;87713;-85
2021/12/31 11:36:38;;;;;;;14.38;5.70;;;21.20;66.60;;;;;;4972510;28;87623;-83
2021/12/31 11:39:38;;;;;;;10.80;5.63;;;21.20;66.60;;;;;;4972902;28;86317;-82
2021/12/31 11:42:06;;;;;;;13.73;5.78;;;21.20;66.50;;;;;;4955866;28;88742;-83
2021/12/31 11:44:33;;;;;;;12.15;5.45;;;21.20;66.60;;;;;;4972428;28;87895;-82
2021/12/31 11:47:26;;;;;;;16.67;6.13;;;21.20;66.50;;;;;;4972410;28;88510;-82
2021/12/31 11:50:22;;;;;;;15.07;5.93;;;21.20;66.60;;;;;;4972353;28;87612;-82
2021/12/31 11:53:02;;;;;;;12.95;5.10;;;21.20;66.40;;;;;;4969990;28;88305;-85
2021/12/31 11:55:37;;;;;;;13.25;5.75;;;21.20;66.50;;;;;;4970158;28;88530;-83
2021/12/31 11:58:38;;;;;;;13.30;5.80;;;21.20;66.30;;;;;;4971792;28;87222;-83
2021/12/31 12:01:51;;;;;;;14.30;5.30;;;21.20;66.30;;;;;;4968786;28;87634;-83
2021/12/31 12:04:39;;;;;;;13.80;6.03;;;21.20;66.70;;;;;;4970899;28;88143;-83
2021/12/31 12:07:33;;;;;;;13.48;5.68;;;21.20;66.60;;;;;;4972286;28;88284;-84
2021/12/31 12:09:58;;;;;;;12.45;5.63;;;21.20;66.50;;;;;;4971816;28;88330;-83
2021/12/31 12:12:26;;;;;;;13.70;5.07;;;21.20;66.70;;;;;;4972599;28;87791;-83
2021/12/31 12:14:54;;;;;;;13.48;5.25;;;21.20;67.60;;;;;;4972419;28;88607;-83
2021/12/31 12:17:29;;;;;;;17.10;5.38;;;21.20;66.70;;;;;;4972532;28;88835;-84
2021/12/31 12:20:01;;;;;;;12.98;5.00;;;21.20;66.50;;;;;;4972849;28;87809;-84
2021/12/31 12:22:32;;;;;;;12.48;5.35;;;21.20;66.50;;;;;;4970025;28;88230;-82
2021/12/31 12:25:00;;;;;;;11.45;4.78;;;21.20;66.60;;;;;;4972216;28;87301;-82
2021/12/31 12:27:27;;;;;;;11.40;4.80;;;21.20;66.60;;;;;;4971620;28;88420;-83
2021/12/31 12:29:54;;;;;;;14.13;4.88;;;21.20;66.70;;;;;;4971930;28;86979;-83
2021/12/31 12:32:37;;;;;;;13.52;5.03;;;21.20;66.70;;;;;;4970137;28;86825;-88
2021/12/31 12:35:33;;;;;;;11.10;4.90;;;21.30;66.70;;;;;;4972554;28;87747;-84
2021/12/31 12:38:18;;;;;;;13.77;4.57;;;21.20;66.60;;;;;;4965087;28;89754;-83
2021/12/31 12:40:52;;;;;;;10.85;4.85;;;21.30;66.70;;;;;;4970443;28;88545;-83
2021/12/31 12:43:28;;;;;;;12.27;5.40;;;21.20;66.50;;;;;;4971838;28;87345;-83
2021/12/31 12:45:58;;;;;;;11.70;5.30;;;21.30;66.50;;;;;;4972857;28;87658;-82
2021/12/31 12:48:38;;;;;;;12.57;4.88;;;21.30;66.60;;;;;;4971150;28;89293;-85
2021/12/31 12:51:06;;;;;;;12.02;4.40;;;21.20;66.50;;;;;;4971488;28;87656;-83
2021/12/31 12:53:34;;;;;;;11.77;5.17;;;21.20;66.50;;;;;;4970347;28;89707;-83
2021/12/31 12:56:12;;;;;;;10.15;4.55;;;21.20;66.50;;;;;;4971757;28;87263;-84
2021/12/31 12:58:45;;;;;;;12.77;4.75;;;21.30;66.10;;;;;;4973134;28;87255;-83
2021/12/31 13:01:10;;;;;;;10.85;4.10;;;21.20;65.60;;;;;;4973846;28;87882;-83